createdAt,value
2023-04-06T00:02:14.343Z,6.22
2023-04-06T00:04:41.940Z,6.22
2023-04-06T00:07:10.382Z,7.03
2023-04-06T00:09:37.905Z,6.55
2023-04-06T00:12:05.902Z,7.32
2023-04-06T00:14:34.406Z,7.05
2023-04-06T00:17:03.495Z,6.07
2023-04-06T00:19:31.422Z,6.72
2023-04-06T00:21:59.096Z,6.22
2023-04-06T00:24:26.744Z,6.70
2023-04-06T00:26:54.932Z,6.35
2023-04-06T00:29:22.535Z,6.53
2023-04-06T00:31:50.503Z,6.43
2023-04-06T00:34:19.406Z,6.70
2023-04-06T00:36:47.003Z,7.00
2023-04-06T00:39:14.564Z,6.45
2023-04-06T00:41:51.282Z,6.82
2023-04-06T00:47:15.924Z,7.10
2023-04-06T00:49:48.724Z,6.85
2023-04-06T00:52:16.991Z,6.80
2023-04-06T00:54:47.561Z,6.60
2023-04-06T00:57:17.933Z,6.15
2023-04-06T00:59:47.760Z,6.70
2023-04-06T01:02:15.906Z,6.85
2023-04-06T01:04:49.972Z,6.55
2023-04-06T01:07:26.512Z,6.68
2023-04-06T01:10:05.929Z,6.25
2023-04-06T01:12:37.090Z,6.80
2023-04-06T01:15:09.150Z,6.28
2023-04-06T01:17:39.973Z,6.78
2023-04-06T01:20:14.455Z,7.50
2023-04-06T01:22:44.915Z,6.43
2023-04-06T01:25:13.924Z,6.72
2023-04-06T01:27:49.421Z,7.10
2023-04-06T01:30:24.280Z,6.60
2023-04-06T01:32:57.066Z,6.70
2023-04-06T01:35:38.367Z,6.78
2023-04-06T01:41:37.911Z,7.03
2023-04-06T01:44:06.895Z,6.70
2023-04-06T01:46:34.617Z,6.78
2023-04-06T01:49:04.901Z,7.22
2023-04-06T01:51:40.420Z,6.82
2023-04-06T01:54:13.929Z,7.22
2023-04-06T01:56:57.929Z,6.78
2023-04-06T01:59:31.587Z,6.70
2023-04-06T02:02:02.022Z,6.95
2023-04-06T02:04:31.306Z,6.30
2023-04-06T02:07:09.159Z,6.68
2023-04-06T02:09:40.913Z,6.40
2023-04-06T02:12:13.996Z,6.68
2023-04-06T02:14:42.912Z,7.30
2023-04-06T02:17:12.020Z,7.38
2023-04-06T02:19:39.532Z,7.07
2023-04-06T02:22:07.077Z,6.88
2023-04-06T02:24:34.910Z,7.22
2023-04-06T02:27:07.766Z,7.30
2023-04-06T02:29:35.396Z,7.30
2023-04-06T02:32:03.931Z,7.30
2023-04-06T02:34:34.575Z,7.28
2023-04-06T02:37:02.477Z,7.38
2023-04-06T02:39:31.415Z,7.68
2023-04-06T02:41:59.801Z,7.10
2023-04-06T02:44:29.139Z,7.10
2023-04-06T02:46:56.990Z,6.75
2023-04-06T02:49:26.706Z,7.05
2023-04-06T02:51:57.622Z,8.00
2023-04-06T02:54:30.241Z,7.32
2023-04-06T02:56:58.294Z,7.53
2023-04-06T02:59:36.038Z,6.80
2023-04-06T03:02:11.011Z,8.02
2023-04-06T03:04:38.979Z,7.65
2023-04-06T03:07:13.339Z,7.35
2023-04-06T03:09:41.528Z,7.47
2023-04-06T03:12:10.061Z,7.47
2023-04-06T03:14:56.804Z,7.57
2023-04-06T03:17:24.417Z,8.07
2023-04-06T03:19:51.996Z,8.05
2023-04-06T03:22:21.745Z,7.80
2023-04-06T03:24:49.745Z,7.82
2023-04-06T03:27:18.362Z,8.00
2023-04-06T03:29:47.914Z,8.20
2023-04-06T03:32:22.792Z,8.07
2023-04-06T03:34:50.432Z,8.38
2023-04-06T03:37:17.981Z,8.02
2023-04-06T03:39:53.919Z,8.10
2023-04-06T03:42:26.905Z,8.63
2023-04-06T03:45:01.863Z,8.05
2023-04-06T03:47:31.179Z,8.55
2023-04-06T03:50:04.068Z,8.38
2023-04-06T03:52:35.018Z,8.38
2023-04-06T03:55:07.883Z,8.27
2023-04-06T03:57:38.360Z,8.10
2023-04-06T04:00:07.007Z,8.23
2023-04-06T04:02:41.557Z,8.85
2023-04-06T04:05:09.997Z,7.95
2023-04-06T04:07:38.968Z,8.63
2023-04-06T04:10:09.016Z,9.30
2023-04-06T04:12:37.120Z,8.85
2023-04-06T04:15:05.482Z,8.27
2023-04-06T04:17:33.443Z,8.82
2023-04-06T04:20:02.405Z,8.68
2023-04-06T04:22:30.348Z,9.13
2023-04-06T04:24:58.201Z,8.65
2023-04-06T04:27:27.017Z,9.52
2023-04-06T04:29:55.901Z,8.90
2023-04-06T04:32:28.083Z,9.25
2023-04-06T04:34:57.276Z,9.98
2023-04-06T04:37:37.136Z,9.50
2023-04-06T04:40:07.253Z,9.60
2023-04-06T04:42:45.881Z,9.38
2023-04-06T04:45:21.805Z,9.43
2023-04-06T04:47:49.653Z,8.90
2023-04-06T04:50:19.105Z,9.38
2023-04-06T04:52:51.619Z,8.82
2023-04-06T04:55:23.219Z,8.98
2023-04-06T04:57:56.318Z,9.05
2023-04-06T05:00:32.613Z,8.43
2023-04-06T05:03:02.433Z,8.30
2023-04-06T05:05:32.659Z,8.20
2023-04-06T05:08:03.953Z,8.73
2023-04-06T05:10:45.272Z,8.68
2023-04-06T05:13:13.289Z,8.75
2023-04-06T05:15:41.173Z,9.13
2023-04-06T05:18:22.383Z,8.80
2023-04-06T05:20:50.731Z,8.65
2023-04-06T05:23:19.724Z,9.35
2023-04-06T05:25:48.638Z,9.20
2023-04-06T05:28:22.092Z,9.32
2023-04-06T05:30:49.760Z,9.02
2023-04-06T05:33:18.175Z,9.75
2023-04-06T05:36:02.138Z,9.50
2023-04-06T05:38:32.121Z,9.80
2023-04-06T05:41:06.467Z,9.43
2023-04-06T05:43:36.973Z,9.45
2023-04-06T05:46:06.476Z,9.32
2023-04-06T05:48:34.381Z,8.88
2023-04-06T05:51:07.024Z,9.75
2023-04-06T05:53:44.324Z,8.60
2023-04-06T05:56:12.441Z,9.00
2023-04-06T05:59:04.840Z,9.43
2023-04-06T06:01:33.321Z,9.40
2023-04-06T06:04:02.492Z,10.32
2023-04-06T06:06:33.515Z,9.95
2023-04-06T06:09:12.388Z,9.45
2023-04-06T06:11:45.894Z,9.60
2023-04-06T06:14:24.264Z,9.70
2023-04-06T06:16:51.812Z,9.43
2023-04-06T06:19:20.293Z,9.27
2023-04-06T06:21:50.731Z,9.95
2023-04-06T06:24:19.947Z,9.45
2023-04-06T06:26:49.914Z,9.38
2023-04-06T06:29:20.453Z,8.88
2023-04-06T06:31:48.055Z,8.38
2023-04-06T06:34:15.888Z,8.88
2023-04-06T06:36:48.350Z,7.80
2023-04-06T06:39:20.848Z,8.50
2023-04-06T06:41:51.848Z,7.80
2023-04-06T06:46:53.976Z,7.55
2023-04-06T06:49:21.968Z,7.45
2023-04-06T06:51:50.004Z,6.72
2023-04-06T06:54:19.747Z,7.22
2023-04-06T06:56:49.977Z,7.35
2023-04-06T06:59:19.451Z,6.88
2023-04-06T07:01:47.932Z,7.28
2023-04-06T07:04:16.065Z,7.38
2023-04-06T07:06:43.658Z,6.53
2023-04-06T07:09:11.250Z,6.55
2023-04-06T07:11:40.701Z,7.32
2023-04-06T07:14:08.800Z,6.93
2023-04-06T07:16:36.842Z,7.10
2023-04-06T07:19:04.766Z,7.00
2023-04-06T07:21:32.432Z,7.10
2023-04-06T07:24:00.084Z,6.50
2023-04-06T07:26:27.921Z,7.07
2023-04-06T07:28:57.103Z,6.25
2023-04-06T07:31:56.921Z,6.10
2023-04-06T07:37:18.093Z,6.88
2023-04-06T07:39:47.425Z,6.60
2023-04-06T07:42:18.918Z,7.22
2023-04-06T07:44:50.648Z,6.07
2023-04-06T07:47:19.276Z,6.07
2023-04-06T07:49:47.139Z,6.60
2023-04-06T07:52:15.347Z,6.80
2023-04-06T07:54:44.029Z,6.47
2023-04-06T07:57:14.913Z,6.10
2023-04-06T07:59:45.646Z,6.90
2023-04-06T08:02:14.708Z,6.65
2023-04-06T08:04:46.145Z,6.78
2023-04-06T08:07:14.290Z,6.22
2023-04-06T08:09:42.287Z,6.93
2023-04-06T08:12:10.162Z,6.35
2023-04-06T08:14:37.775Z,6.25
2023-04-06T08:17:06.587Z,6.50
2023-04-06T08:19:35.575Z,5.88
2023-04-06T08:22:03.367Z,6.72
2023-04-06T08:24:33.973Z,6.18
2023-04-06T08:27:01.619Z,6.20
2023-04-06T08:29:29.425Z,6.80
2023-04-06T08:31:57.299Z,6.80
2023-04-06T08:34:25.028Z,6.32
2023-04-06T08:36:54.076Z,6.82
2023-04-06T08:39:26.188Z,7.13
2023-04-06T08:41:57.856Z,6.97
2023-04-06T08:44:26.056Z,6.90
2023-04-06T08:46:54.046Z,7.15
2023-04-06T08:49:22.903Z,7.00
2023-04-06T08:51:51.414Z,7.00
2023-04-06T08:54:20.979Z,7.40
2023-04-06T08:56:50.297Z,7.88
2023-04-06T08:59:18.933Z,7.50
2023-04-06T09:01:47.691Z,7.65
2023-04-06T09:04:16.009Z,8.05
2023-04-06T09:06:44.902Z,7.82
2023-04-06T09:09:12.658Z,7.68
2023-04-06T09:11:49.974Z,7.70
2023-04-06T09:14:36.142Z,7.68
2023-04-06T09:17:06.020Z,8.07
2023-04-06T09:19:34.977Z,8.43
2023-04-06T09:22:05.535Z,8.15
2023-04-06T09:24:42.434Z,8.82
2023-04-06T09:27:11.316Z,8.23
2023-04-06T09:29:39.925Z,9.13
2023-04-06T09:32:11.320Z,9.18
2023-04-06T09:34:39.594Z,8.93
2023-04-06T09:37:17.187Z,9.27
2023-04-06T09:39:45.890Z,9.50
2023-04-06T09:42:26.700Z,9.82
2023-04-06T09:44:54.536Z,9.50
2023-04-06T09:47:24.811Z,9.48
2023-04-06T09:52:33.534Z,9.43
2023-04-06T09:55:04.985Z,10.20
2023-04-06T09:57:39.985Z,10.18
2023-04-06T10:00:12.975Z,9.18
2023-04-06T10:02:46.351Z,11.15
2023-04-06T10:05:22.914Z,9.90
2023-04-06T10:08:00.212Z,9.40
2023-04-06T10:10:29.587Z,10.10
2023-04-06T10:12:59.461Z,10.02
2023-04-06T10:15:54.129Z,9.82
2023-04-06T10:18:22.575Z,9.90
2023-04-06T10:20:53.367Z,10.85
2023-04-06T10:23:24.795Z,9.90
2023-04-06T10:25:57.057Z,10.40
2023-04-06T10:28:32.139Z,10.70
2023-04-06T10:31:00.940Z,10.98
2023-04-06T10:33:58.449Z,10.32
2023-04-06T10:39:00.140Z,10.10
2023-04-06T10:41:35.026Z,10.65
2023-04-06T10:44:04.660Z,11.23
2023-04-06T10:46:33.355Z,11.18
2023-04-06T10:49:13.223Z,11.25
2023-04-06T10:51:41.416Z,10.70
2023-04-06T10:54:09.421Z,11.18
2023-04-06T10:56:39.735Z,11.20
2023-04-06T10:59:09.242Z,11.23
2023-04-06T11:01:37.511Z,12.38
2023-04-06T11:04:05.565Z,10.80
2023-04-06T11:06:33.542Z,10.40
2023-04-06T11:09:01.220Z,11.35
2023-04-06T11:14:23.803Z,11.40
2023-04-06T11:16:52.606Z,12.10
2023-04-06T11:19:46.956Z,11.83
2023-04-06T11:22:16.334Z,11.88
2023-04-06T11:24:44.083Z,11.43
2023-04-06T11:27:11.921Z,11.55
2023-04-06T11:29:41.756Z,11.90
2023-04-06T11:32:09.517Z,11.68
2023-04-06T11:34:39.550Z,12.10
2023-04-06T11:37:10.137Z,12.10
2023-04-06T11:39:41.276Z,11.48
2023-04-06T11:42:09.584Z,11.63
2023-04-06T11:44:39.906Z,12.27
2023-04-06T11:47:11.943Z,11.45
2023-04-06T11:52:17.434Z,11.40
2023-04-06T11:54:45.137Z,10.93
2023-04-06T11:57:14.307Z,10.30
2023-04-06T11:59:41.958Z,11.10
2023-04-06T12:02:10.969Z,10.90
2023-04-06T12:04:40.050Z,11.00
2023-04-06T12:07:07.995Z,11.20
2023-04-06T12:09:36.909Z,11.77
2023-04-06T12:12:04.758Z,11.82
2023-04-06T12:14:32.998Z,11.68
2023-04-06T12:17:01.340Z,10.55
2023-04-06T12:19:34.012Z,11.02
2023-04-06T12:22:05.303Z,10.82
2023-04-06T12:24:33.488Z,11.68
2023-04-06T12:27:09.419Z,11.85
2023-04-06T12:29:38.554Z,11.15
2023-04-06T12:32:06.274Z,11.43
2023-04-06T12:34:35.874Z,10.65
2023-04-06T12:37:03.471Z,10.55
2023-04-06T12:39:31.808Z,11.20
2023-04-06T12:42:00.971Z,10.73
2023-04-06T12:44:29.351Z,10.45
2023-04-06T12:46:57.959Z,10.48
2023-04-06T12:49:26.439Z,9.90
2023-04-06T12:51:56.315Z,9.02
2023-04-06T12:54:23.896Z,10.25
2023-04-06T12:56:51.482Z,10.15
2023-04-06T12:59:19.162Z,10.82
2023-04-06T13:01:46.851Z,9.55
2023-04-06T13:04:14.569Z,9.88
2023-04-06T13:06:43.046Z,10.52
2023-04-06T13:09:13.952Z,10.10
2023-04-06T13:11:42.327Z,10.43
2023-04-06T13:14:10.074Z,10.68
2023-04-06T13:16:38.585Z,10.55
2023-04-06T13:19:06.279Z,11.07
2023-04-06T13:21:34.323Z,11.52
2023-04-06T13:24:02.017Z,10.50
2023-04-06T13:26:30.977Z,10.35
2023-04-06T13:29:01.745Z,10.88
2023-04-06T13:31:29.291Z,11.32
2023-04-06T13:33:57.594Z,11.55
2023-04-06T13:36:25.651Z,10.38
2023-04-06T13:38:56.132Z,12.38
2023-04-06T13:41:26.410Z,11.70
2023-04-06T13:43:55.590Z,11.18
2023-04-06T13:46:25.059Z,11.48
2023-04-06T13:48:52.843Z,10.98
2023-04-06T13:51:20.968Z,11.25
2023-04-06T13:53:51.175Z,10.43
2023-04-06T13:56:19.330Z,11.88
2023-04-06T13:58:46.896Z,11.98
2023-04-06T14:01:15.927Z,12.32
2023-04-06T14:03:46.411Z,11.45
2023-04-06T14:06:29.522Z,11.75
2023-04-06T14:08:58.580Z,11.73
2023-04-06T14:11:27.177Z,13.30
2023-04-06T14:14:20.314Z,12.23
2023-04-06T14:16:49.595Z,12.63
2023-04-06T14:19:19.756Z,13.00
2023-04-06T14:21:47.930Z,13.95
2023-04-06T14:24:16.845Z,13.25
2023-04-06T14:26:45.179Z,13.70
2023-04-06T14:29:13.364Z,13.07
2023-04-06T14:31:41.066Z,12.35
2023-04-06T14:34:09.949Z,13.00
2023-04-06T14:36:39.172Z,12.80
2023-04-06T14:39:08.070Z,14.02
2023-04-06T14:41:36.231Z,13.98
2023-04-06T14:44:04.673Z,13.43
2023-04-06T14:46:34.489Z,14.63
2023-04-06T14:49:02.232Z,12.73
2023-04-06T14:51:32.209Z,12.90
2023-04-06T14:54:03.785Z,13.40
2023-04-06T14:56:32.135Z,12.47
2023-04-06T14:59:00.402Z,12.55
2023-04-06T15:01:29.550Z,13.35
2023-04-06T15:03:57.357Z,12.85
2023-04-06T15:06:25.028Z,13.48
2023-04-06T15:08:55.494Z,14.00
2023-04-06T15:11:24.019Z,13.23
2023-04-06T15:13:54.013Z,13.00
2023-04-06T15:16:21.631Z,12.82
2023-04-06T15:18:49.374Z,11.90
2023-04-06T15:21:17.008Z,11.77
2023-04-06T15:23:44.739Z,11.57
2023-04-06T15:26:15.057Z,10.70
2023-04-06T15:28:44.677Z,11.90
2023-04-06T15:31:28.325Z,11.02
2023-04-06T15:34:04.025Z,11.47
2023-04-06T15:36:31.950Z,10.63
2023-04-06T15:39:01.019Z,10.35
2023-04-06T15:41:31.935Z,10.50
2023-04-06T15:43:59.946Z,10.10
2023-04-06T15:46:28.911Z,10.30
2023-04-06T15:48:57.110Z,10.93
2023-04-06T15:51:26.128Z,10.73
2023-04-06T15:53:53.841Z,10.40
2023-04-06T15:56:21.636Z,9.70
2023-04-06T15:58:50.793Z,9.77
2023-04-06T16:01:20.004Z,9.40
2023-04-06T16:03:48.222Z,9.75
2023-04-06T16:06:15.942Z,9.45
2023-04-06T16:08:43.572Z,8.77
2023-04-06T16:11:11.684Z,8.43
2023-04-06T16:13:39.577Z,8.02
2023-04-06T16:16:09.759Z,7.05
2023-04-06T16:18:37.398Z,6.90
2023-04-06T16:21:05.374Z,6.22
2023-04-06T16:23:34.601Z,7.10
2023-04-06T16:26:03.019Z,6.95
2023-04-06T16:28:31.364Z,6.65
2023-04-06T16:33:31.372Z,6.38
2023-04-06T16:35:59.088Z,6.68
2023-04-06T16:38:31.543Z,6.47
2023-04-06T16:41:02.747Z,7.25
2023-04-06T16:43:30.968Z,7.40
2023-04-06T16:45:59.587Z,8.57
2023-04-06T16:48:28.037Z,8.40
2023-04-06T16:50:57.265Z,7.78
2023-04-06T16:53:24.936Z,8.02
2023-04-06T16:55:52.501Z,7.78
2023-04-06T16:58:20.082Z,7.20
2023-04-06T17:00:47.648Z,7.97
2023-04-06T17:03:15.645Z,8.13
2023-04-06T17:05:45.152Z,7.47
2023-04-06T17:08:15.108Z,8.48
2023-04-06T17:13:40.163Z,9.25
2023-04-06T17:16:08.266Z,8.75
2023-04-06T17:18:36.304Z,8.70
2023-04-06T17:21:06.949Z,8.57
2023-04-06T17:23:35.925Z,9.70
2023-04-06T17:26:05.711Z,9.85
2023-04-06T17:28:35.525Z,8.95
2023-04-06T17:31:03.126Z,8.25
2023-04-06T17:33:32.425Z,7.20
2023-04-06T17:35:59.976Z,6.55
2023-04-06T17:38:27.867Z,6.97
2023-04-06T17:40:56.800Z,6.88
2023-04-06T17:43:24.515Z,7.10
2023-04-06T17:45:52.430Z,6.60
2023-04-06T17:48:21.008Z,6.97
2023-04-06T17:50:48.955Z,6.50
2023-04-06T17:53:18.742Z,6.55
2023-04-06T17:55:47.525Z,6.40
2023-04-06T17:58:16.824Z,7.13
2023-04-06T18:00:45.017Z,6.70
2023-04-06T18:03:12.616Z,7.50
2023-04-06T18:05:40.516Z,7.20
2023-04-06T18:08:08.096Z,7.03
2023-04-06T18:10:39.995Z,7.55
2023-04-06T18:15:38.325Z,7.03
2023-04-06T18:18:07.306Z,7.38
2023-04-06T18:20:34.886Z,6.80
2023-04-06T18:23:02.484Z,7.00
2023-04-06T18:25:29.989Z,6.53
2023-04-06T18:27:57.525Z,6.40
2023-04-06T18:30:25.399Z,6.75
2023-04-06T18:32:54.350Z,6.95
2023-04-06T18:35:25.951Z,6.90
2023-04-06T18:37:55.972Z,7.07
2023-04-06T18:40:34.443Z,6.47
2023-04-06T18:43:03.265Z,6.65
2023-04-06T18:45:33.106Z,7.07
2023-04-06T18:48:03.258Z,6.95
2023-04-06T18:50:31.631Z,6.35
2023-04-06T18:52:59.182Z,7.00
2023-04-06T18:55:27.089Z,6.68
2023-04-06T18:57:54.986Z,6.88
2023-04-06T19:00:22.539Z,6.50
2023-04-06T19:02:50.192Z,7.22
2023-04-06T19:05:22.118Z,7.00
2023-04-06T19:07:52.391Z,7.00
2023-04-06T19:10:21.305Z,7.57
2023-04-06T19:12:52.296Z,6.28
2023-04-06T19:15:20.393Z,7.75
2023-04-06T19:17:48.044Z,7.25
2023-04-06T19:20:15.774Z,7.38
2023-04-06T19:22:45.637Z,7.60
2023-04-06T19:25:13.894Z,7.10
2023-04-06T19:27:41.918Z,7.25
2023-04-06T19:30:11.998Z,7.97
2023-04-06T19:32:41.126Z,7.85
2023-04-06T19:35:09.506Z,8.02
2023-04-06T19:37:37.950Z,7.55
2023-04-06T19:40:10.383Z,8.00
2023-04-06T19:42:38.626Z,7.82
2023-04-06T19:45:08.038Z,8.00
2023-04-06T19:47:35.858Z,7.88
2023-04-06T19:50:03.605Z,8.02
2023-04-06T19:52:32.562Z,8.55
2023-04-06T19:55:00.522Z,8.82
2023-04-06T19:57:30.056Z,9.15
2023-04-06T19:59:57.782Z,8.93
2023-04-06T20:02:25.537Z,9.25
2023-04-06T20:04:53.347Z,9.57
2023-04-06T20:07:20.973Z,10.10
2023-04-06T20:09:48.561Z,9.15
2023-04-06T20:12:16.144Z,10.00
2023-04-06T20:14:45.090Z,10.00
2023-04-06T20:17:12.629Z,9.35
2023-04-06T20:19:40.197Z,10.27
2023-04-06T20:22:07.787Z,10.25
2023-04-06T20:24:35.407Z,9.93
2023-04-06T20:27:03.074Z,9.85
2023-04-06T20:29:30.664Z,10.88
2023-04-06T20:32:01.326Z,10.48
2023-04-06T20:34:29.658Z,10.75
2023-04-06T20:36:57.940Z,10.18
2023-04-06T20:39:27.241Z,10.35
2023-04-06T20:41:54.939Z,10.38
2023-04-06T20:44:22.563Z,10.93
2023-04-06T20:46:50.273Z,10.38
2023-04-06T20:49:21.990Z,10.85
2023-04-06T20:51:49.962Z,11.70
2023-04-06T20:54:17.685Z,11.35
2023-04-06T20:56:46.166Z,11.05
2023-04-06T20:59:13.800Z,11.18
2023-04-06T21:01:41.779Z,11.27
2023-04-06T21:04:10.098Z,11.18
2023-04-06T21:06:40.174Z,10.57
2023-04-06T21:09:07.896Z,12.20
2023-04-06T21:11:35.421Z,11.23
2023-04-06T21:14:03.255Z,11.48
2023-04-06T21:16:30.854Z,12.73
2023-04-06T21:18:59.354Z,11.07
2023-04-06T21:21:26.878Z,11.82
2023-04-06T21:23:56.422Z,11.00
2023-04-06T21:26:25.039Z,11.10
2023-04-06T21:28:52.576Z,12.18
2023-04-06T21:31:21.400Z,11.93
2023-04-06T21:33:49.214Z,11.80
2023-04-06T21:36:16.969Z,11.98
2023-04-06T21:38:44.702Z,12.20
2023-04-06T21:41:13.777Z,11.52
2023-04-06T21:43:41.348Z,12.63
2023-04-06T21:46:08.918Z,11.88
2023-04-06T21:48:36.485Z,12.18
2023-04-06T21:51:04.616Z,11.45
2023-04-06T21:53:32.537Z,11.38
2023-04-06T21:56:00.814Z,12.00
2023-04-06T21:58:29.720Z,11.55
2023-04-06T22:00:58.423Z,11.57
2023-04-06T22:03:26.282Z,11.95
2023-04-06T22:05:54.063Z,12.05
2023-04-06T22:08:33.691Z,11.95
2023-04-06T22:11:02.007Z,11.65
2023-04-06T22:13:32.711Z,11.45
2023-04-06T22:16:00.282Z,11.13
2023-04-06T22:18:28.131Z,11.65
2023-04-06T22:20:56.072Z,11.90
2023-04-06T22:23:23.794Z,11.40
2023-04-06T22:25:51.476Z,11.82
2023-04-06T22:28:19.138Z,12.30
2023-04-06T22:30:50.044Z,11.98
2023-04-06T22:33:17.953Z,11.75
2023-04-06T22:38:37.981Z,11.50
2023-04-06T22:41:07.167Z,11.45
2023-04-06T22:43:36.027Z,10.52
2023-04-06T22:46:05.472Z,10.93
2023-04-06T22:48:33.059Z,10.60
2023-04-06T22:51:01.051Z,10.30
2023-04-06T22:53:28.947Z,10.30
2023-04-06T22:55:56.632Z,9.82
2023-04-06T22:58:24.973Z,10.00
2023-04-06T23:00:53.027Z,9.73
2023-04-06T23:03:23.018Z,9.60
2023-04-06T23:05:51.950Z,9.20
2023-04-06T23:08:23.365Z,8.38
2023-04-06T23:10:52.984Z,9.38
2023-04-06T23:13:20.502Z,9.32
2023-04-06T23:15:48.962Z,9.15
2023-04-06T23:18:16.866Z,9.27
2023-04-06T23:20:46.017Z,9.20
2023-04-06T23:23:14.034Z,9.25
2023-04-06T23:25:41.561Z,9.82
2023-04-06T23:28:09.288Z,9.75
2023-04-06T23:30:36.819Z,9.20
2023-04-06T23:33:05.494Z,9.13
2023-04-06T23:35:33.466Z,9.75
2023-04-06T23:38:02.739Z,8.77
2023-04-06T23:40:30.405Z,8.77
2023-04-06T23:42:58.020Z,9.10
2023-04-06T23:45:25.931Z,8.40
2023-04-06T23:47:54.403Z,8.52
2023-04-06T23:50:22.144Z,8.52
2023-04-06T23:52:50.540Z,8.40
2023-04-06T23:55:19.910Z,8.60
2023-04-06T23:57:49.153Z,8.30
